Terminal Aerodrome Forecast
Issued by NWS

Current Version | Previous Version | Text Only | Print | Product List | Glossary Off
Versions: 1 2 3 4 5 6 7 8 9 10 11 12 13 14 15

000
FTUS41 KPBZ 221900 AAA
TAFHLG
TAF AMD
KHLG 221940Z 2220/2318 30012G19KT P6SM SCT045 SCT060 BKN100
     FM230200 33007KT P6SM BKN025
     FM231500 34010G18KT P6SM BKN040=

USA.gov is the U.S. government's official web portal to all federal, state and local government web resources and services.